Time;durP1;ratioP1;P1;durP2;ratioP2;P2;SDS_P1;SDS_P2;PMS_P1;PMS_P2;Temp;Humidity;BMP_temperature;BMP_pressure;BME280_temperature;BME280_humidity;BME280_pressure;Samples;Min_cycle;Max_cycle;Signal;HPM_P1;HPM_P2
2022/11/15 00:00:19;;;;;;;20.25;12.63;;;;;;;6.08;100.00;100769.22;1033308;28;20345;-95
2022/11/15 00:01:11;;;;;;;17.50;12.95;;;;;;;6.11;100.00;100767.00;1029192;28;20698;-94
2022/11/15 00:02:03;;;;;;;19.45;12.18;;;;;;;6.09;100.00;100758.44;1033810;28;20264;-96
2022/11/15 00:02:54;;;;;;;18.58;12.55;;;;;;;6.10;100.00;100772.47;1033035;28;20328;-96
2022/11/15 00:03:45;;;;;;;19.42;13.32;;;;;;;6.13;100.00;100764.16;1029182;28;20358;-95
2022/11/15 00:04:36;;;;;;;20.92;13.88;;;;;;;6.16;100.00;100761.13;1037898;28;20046;-95
2022/11/15 00:05:26;;;;;;;24.38;14.75;;;;;;;6.12;100.00;100765.19;1037316;28;20091;-94
2022/11/15 00:06:16;;;;;;;18.77;13.35;;;;;;;6.15;100.00;100756.84;1037091;28;20288;-96
2022/11/15 00:07:06;;;;;;;19.25;14.48;;;;;;;6.11;100.00;100763.53;1033998;28;20358;-95
2022/11/15 00:07:56;;;;;;;20.67;13.55;;;;;;;6.15;100.00;100759.50;1029283;28;20334;-95
2022/11/15 00:08:46;;;;;;;21.35;14.05;;;;;;;6.13;100.00;100766.81;1032751;28;20281;-95
2022/11/15 00:09:36;;;;;;;21.42;12.75;;;;;;;6.16;100.00;100763.78;1037328;28;20068;-96
2022/11/15 00:10:33;;;;;;;21.60;14.43;;;;;;;6.13;100.00;100756.22;1029531;28;20780;-95
2022/11/15 00:11:23;;;;;;;19.38;13.98;;;;;;;6.18;100.00;100753.84;1025109;29;20283;-95
2022/11/15 00:12:14;;;;;;;18.98;12.68;;;;;;;6.20;100.00;100754.47;1037841;28;20292;-96
2022/11/15 00:13:08;;;;;;;26.92;14.90;;;;;;;6.18;100.00;100753.84;1036816;28;20292;-95
2022/11/15 00:13:58;;;;;;;22.25;12.63;;;;;;;6.22;100.00;100755.09;1025142;29;20286;-95
2022/11/15 00:14:48;;;;;;;22.40;15.35;;;;;;;6.24;100.00;100753.06;1026000;29;20630;-96
2022/11/15 00:15:39;;;;;;;21.13;13.40;;;;;;;6.27;100.00;100750.03;1028864;28;20129;-96
2022/11/15 00:16:29;;;;;;;;;;;;;;;6.27;100.00;100747.41;1029315;28;20319;-96
2022/11/15 00:17:19;;;;;;;20.77;14.27;;;;;;;6.28;100.00;100749.03;1027020;28;19979;-96
2022/11/15 00:18:13;;;;;;;22.42;14.05;;;;;;;6.25;100.00;100760.00;1024881;29;20290;-96
2022/11/15 00:19:03;;;;;;;21.17;14.45;;;;;;;6.28;100.00;100764.09;1033103;28;20712;-94
2022/11/15 00:19:53;;;;;;;22.80;14.57;;;;;;;6.31;100.00;100759.25;1033765;28;20396;-94
2022/11/15 00:20:43;;;;;;;21.38;14.90;;;;;;;6.32;100.00;100758.25;1032733;28;20332;-94
2022/11/15 00:21:34;;;;;;;23.58;14.65;;;;;;;6.32;100.00;100755.59;1025052;29;20843;-95
2022/11/15 00:22:23;;;;;;;24.40;13.65;;;;;;;6.32;100.00;100755.59;1024643;29;20302;-94
2022/11/15 00:23:13;;;;;;;25.85;15.10;;;;;;;6.34;100.00;100753.59;1028938;28;20297;-95
2022/11/15 00:24:04;;;;;;;23.73;15.15;;;;;;;6.36;100.00;100756.84;1028692;28;20728;-96
2022/11/15 00:24:54;;;;;;;25.02;15.27;;;;;;;6.36;100.00;100754.22;1028659;28;20649;-95
2022/11/15 00:25:44;;;;;;;24.77;15.88;;;;;;;6.35;100.00;100751.75;1021657;29;20287;-95
2022/11/15 00:26:33;;;;;;;22.08;15.48;;;;;;;6.39;100.00;100751.19;1029127;28;20294;-95
2022/11/15 00:27:24;;;;;;;20.73;14.13;;;;;;;6.37;100.00;100747.91;1036251;28;20391;-95
2022/11/15 00:28:14;;;;;;;28.65;15.63;;;;;;;6.35;100.00;100744.63;1040784;28;20478;-94
2022/11/15 00:29:04;;;;;;;26.50;14.63;;;;;;;6.39;100.00;100745.06;1029384;28;20768;-94
2022/11/15 00:29:54;;;;;;;23.80;14.90;;;;;;;6.39;100.00;100745.88;1032872;28;20694;-93
2022/11/15 00:30:44;;;;;;;26.88;14.75;;;;;;;6.38;100.00;100744.25;1033649;28;20305;-90
2022/11/15 00:31:34;;;;;;;28.08;14.65;;;;;;;6.42;100.00;100750.78;1036355;28;20343;-94
2022/11/15 00:32:24;;;;;;;25.05;15.30;;;;;;;6.42;100.00;100750.78;1030171;28;20345;-93
2022/11/15 00:33:14;;;;;;;26.90;15.73;;;;;;;6.48;100.00;100759.78;1037256;28;20295;-94
2022/11/15 00:34:12;;;;;;;31.30;16.50;;;;;;;6.44;100.00;100748.78;1040823;28;20849;-94
2022/11/15 00:35:02;;;;;;;19.95;13.25;;;;;;;6.46;100.00;100746.75;1032842;28;20816;-93
2022/11/15 00:35:52;;;;;;;28.67;14.98;;;;;;;6.47;100.00;100745.75;1034985;28;20332;-95
2022/11/15 00:36:42;;;;;;;26.35;15.55;;;;;;;6.48;100.00;100746.56;1036801;28;20281;-96
2022/11/15 00:37:32;;;;;;;29.42;15.57;;;;;;;6.50;100.00;100753.28;1036207;28;20461;-95
2022/11/15 00:38:22;;;;;;;25.10;15.73;;;;;;;6.53;100.00;100752.09;1033978;28;20354;-95
2022/11/15 00:39:12;;;;;;;26.73;15.60;;;;;;;6.51;100.00;100747.00;1036395;28;20288;-93
2022/11/15 00:40:02;;;;;;;25.42;14.70;;;;;;;6.50;100.00;100742.72;1036996;28;20288;-93
2022/11/15 00:40:52;;;;;;;23.55;15.85;;;;;;;6.51;100.00;100747.00;1041119;28;20334;-92
2022/11/15 00:41:42;;;;;;;25.60;15.07;;;;;;;6.54;100.00;100743.13;1040601;28;20303;-92
2022/11/15 00:42:32;;;;;;;33.88;17.15;;;;;;;6.56;100.00;100745.59;1035033;28;20304;-91
2022/11/15 00:43:22;;;;;;;27.83;15.75;;;;;;;6.55;100.00;100749.25;1035950;28;20323;-89
2022/11/15 00:44:12;;;;;;;30.40;16.95;;;;;;;6.59;100.00;100743.41;1037851;28;20824;-89
2022/11/15 00:45:02;;;;;;;31.15;16.27;;;;;;;6.57;100.00;100741.94;1037735;28;20827;-90
2022/11/15 00:45:53;;;;;;;23.23;14.77;;;;;;;6.57;100.00;100744.59;1035491;28;20367;-90
2022/11/15 00:46:43;;;;;;;25.70;14.40;;;;;;;6.56;100.00;100735.00;1038116;28;20365;-90
2022/11/15 00:47:33;;;;;;;31.85;19.27;;;;;;;6.62;100.00;100744.84;1040857;28;20056;-90
2022/11/15 00:48:23;;;;;;;31.08;15.88;;;;;;;6.59;100.00;100745.25;1038669;28;20291;-88
2022/11/15 00:49:13;;;;;;;23.88;15.63;;;;;;;6.59;100.00;100739.94;1036474;28;20331;-91
2022/11/15 00:50:04;;;;;;;28.63;15.52;;;;;;;6.61;100.00;100737.91;1031431;28;20297;-89
2022/11/15 00:50:54;;;;;;;26.13;16.58;;;;;;;6.63;100.00;100741.19;1039365;28;20342;-91
2022/11/15 00:51:44;;;;;;;31.25;17.73;;;;;;;6.61;100.00;100738.75;1035581;28;20105;-91
2022/11/15 00:52:34;;;;;;;29.67;16.83;;;;;;;6.62;100.00;100739.56;1033534;28;20339;-91
2022/11/15 00:53:24;;;;;;;30.50;17.30;;;;;;;6.61;100.00;100732.63;1033998;28;20394;-91
2022/11/15 00:54:14;;;;;;;32.10;16.38;;;;;;;6.61;100.00;100732.63;1042767;28;20816;-92
2022/11/15 00:55:04;;;;;;;33.35;15.40;;;;;;;6.62;100.00;100731.63;1041334;28;20283;-91
2022/11/15 00:55:54;;;;;;;27.98;16.05;;;;;;;6.63;100.00;100746.47;1037661;28;20342;-90
2022/11/15 00:56:44;;;;;;;25.38;14.90;;;;;;;6.64;100.00;100737.53;1029739;28;20054;-91
2022/11/15 00:57:34;;;;;;;28.60;15.82;;;;;;;6.62;100.00;100740.38;1033394;28;20807;-91
2022/11/15 00:58:24;;;;;;;25.45;15.57;;;;;;;6.63;100.00;100733.25;1036610;28;20341;-90
2022/11/15 00:59:14;;;;;;;23.63;14.65;;;;;;;6.66;100.00;100738.16;1043844;28;20915;-90
2022/11/15 01:00:05;;;;;;;31.10;16.02;;;;;;;6.69;100.00;100737.75;1037742;28;20291;-90
2022/11/15 01:00:55;;;;;;;25.83;16.65;;;;;;;6.68;100.00;100733.47;1031913;28;20390;-90
2022/11/15 01:01:45;;;;;;;30.88;16.55;;;;;;;6.69;100.00;100737.75;1037003;28;20050;-90
2022/11/15 01:02:35;;;;;;;29.85;16.08;;;;;;;6.70;100.00;100739.41;1032579;28;20345;-89
2022/11/15 01:03:25;;;;;;;27.60;16.90;;;;;;;6.70;100.00;100736.75;1034042;28;20904;-90
2022/11/15 01:04:15;;;;;;;33.00;17.30;;;;;;;6.75;100.00;100729.88;1035512;28;20296;-90
2022/11/15 01:05:05;;;;;;;28.27;17.50;;;;;;;6.75;100.00;100734.34;1029532;28;20901;-90
2022/11/15 01:05:59;;;;;;;34.78;17.15;;;;;;;6.76;100.00;100733.31;1032959;28;20291;-91
2022/11/15 01:06:49;;;;;;;27.55;16.90;;;;;;;6.77;100.00;100738.44;1037501;28;20100;-90
2022/11/15 01:07:39;;;;;;;26.38;17.50;;;;;;;6.77;100.00;100724.38;1042726;28;20303;-90
2022/11/15 01:08:29;;;;;;;27.92;16.55;;;;;;;6.76;100.00;100738.63;1033498;28;20702;-91
2022/11/15 01:09:19;;;;;;;31.60;16.98;;;;;;;6.77;100.00;100727.03;1035384;28;20338;-91
2022/11/15 01:10:09;;;;;;;33.88;17.23;;;;;;;6.80;100.00;100731.94;1035384;28;20400;-90
2022/11/15 01:11:04;;;;;;;30.35;16.40;;;;;;;6.79;100.00;100735.59;1035950;28;20316;-90
2022/11/15 01:11:54;;;;;;;25.55;15.00;;;;;;;6.81;100.00;100731.72;1036138;28;20115;-90
2022/11/15 01:12:45;;;;;;;24.73;15.95;;;;;;;6.78;100.00;100729.47;1036101;28;20873;-91
2022/11/15 01:13:38;;;;;;;33.83;17.23;;;;;;;6.81;100.00;100733.56;1033304;28;20332;-90
2022/11/15 01:14:28;;;;;;;32.53;17.80;;;;;;;6.81;100.00;100728.25;1035350;28;20289;-92
2022/11/15 01:15:18;;;;;;;27.73;15.73;;;;;;;6.81;100.00;100722.97;1030310;28;20314;-91
2022/11/15 01:16:11;;;;;;;26.23;14.77;;;;;;;6.77;100.00;100719.91;1035217;28;20364;-90
2022/11/15 01:17:01;;;;;;;25.23;17.17;;;;;;;6.78;100.00;100720.72;1035183;28;20288;-89
2022/11/15 01:17:51;;;;;;;26.70;16.88;;;;;;;6.84;100.00;100719.94;1039791;28;20303;-89
2022/11/15 01:18:41;;;;;;;28.88;18.02;;;;;;;6.85;100.00;100713.66;1043715;28;20302;-90
2022/11/15 01:19:31;;;;;;;25.85;16.02;;;;;;;6.86;100.00;100720.59;1036919;28;20292;-89
2022/11/15 01:20:21;;;;;;;31.48;17.23;;;;;;;6.85;100.00;100718.94;1028276;28;20481;-91
2022/11/15 01:21:16;;;;;;;27.27;15.93;;;;;;;6.87;100.00;100722.22;1035335;28;20312;-91
2022/11/15 01:22:06;;;;;;;28.75;16.05;;;;;;;6.90;100.00;100711.22;1038506;28;20363;-88
2022/11/15 01:22:56;;;;;;;27.40;16.77;;;;;;;6.87;100.00;100711.63;1035934;28;20327;-91
2022/11/15 01:23:46;;;;;;;31.77;17.15;;;;;;;6.88;100.00;100715.09;1031321;28;20798;-91
2022/11/15 01:24:36;;;;;;;28.30;17.90;;;;;;;6.87;100.00;100716.91;1030747;28;20365;-92
2022/11/15 01:25:26;;;;;;;24.42;15.00;;;;;;;6.86;100.00;100715.28;1030247;28;20826;-91
2022/11/15 01:26:16;;;;;;;26.38;17.42;;;;;;;6.87;100.00;100716.91;1035871;28;20874;-91
2022/11/15 01:27:07;;;;;;;26.95;16.33;;;;;;;6.88;100.00;100718.56;1039800;28;20156;-90
2022/11/15 01:27:57;;;;;;;37.00;18.27;;;;;;;6.88;100.00;100715.91;1032582;28;20176;-90
2022/11/15 01:28:47;;;;;;;28.40;16.92;;;;;;;6.85;100.00;100720.75;1032651;28;20348;-89
2022/11/15 01:29:36;;;;;;;31.98;16.83;;;;;;;6.85;100.00;100708.34;1038827;28;20650;-89
2022/11/15 01:30:26;;;;;;;28.13;18.17;;;;;;;6.86;100.00;100704.69;1037231;28;20283;-91
2022/11/15 01:31:21;;;;;;;29.02;19.08;;;;;;;6.88;100.00;100713.25;1032948;28;20315;-90
2022/11/15 01:32:11;;;;;;;30.65;16.33;;;;;;;6.86;100.00;100704.69;1032692;28;20659;-91
2022/11/15 01:33:01;;;;;;;29.70;18.92;;;;;;;6.87;100.00;100701.03;1036924;28;20342;-91
2022/11/15 01:33:50;;;;;;;27.85;18.90;;;;;;;6.87;100.00;100708.97;1035296;28;20838;-90
2022/11/15 01:34:41;;;;;;;31.50;17.30;;;;;;;6.90;100.00;100708.59;1037845;28;20439;-91
2022/11/15 01:35:30;;;;;;;26.77;16.77;;;;;;;6.89;100.00;100706.94;1036031;28;20292;-90
2022/11/15 01:36:22;;;;;;;28.98;15.80;;;;;;;6.89;100.00;100711.44;1034273;28;20359;-91
2022/11/15 01:37:12;;;;;;;26.33;15.90;;;;;;;6.88;100.00;100705.31;1028183;28;20342;-91
2022/11/15 01:38:02;;;;;;;28.45;17.30;;;;;;;6.91;100.00;100710.22;1035604;28;20280;-91
2022/11/15 01:38:55;;;;;;;30.08;18.33;;;;;;;6.91;100.00;100715.50;1033054;28;20388;-90
2022/11/15 01:39:45;;;;;;;29.55;17.65;;;;;;;6.91;100.00;100712.06;1035941;28;20292;-92
2022/11/15 01:40:35;;;;;;;25.75;15.63;;;;;;;6.94;100.00;100711.66;1032935;28;20292;-91
2022/11/15 01:41:28;;;;;;;24.23;16.80;;;;;;;6.92;100.00;100711.84;1037157;28;20365;-91
2022/11/15 01:42:19;;;;;;;29.60;17.13;;;;;;;6.92;100.00;100714.50;1043642;28;20295;-90
2022/11/15 01:43:24;;;;;;;24.00;16.80;;;;;;;6.94;100.00;100709.81;1031971;28;20304;-90
2022/11/15 01:44:40;;;;;;;29.38;16.17;;;;;;;6.97;100.00;100711.25;1035577;28;20291;-89
2022/11/15 01:45:30;;;;;;;26.27;15.00;;;;;;;6.96;100.00;100705.16;1038429;28;20288;-90
2022/11/15 01:46:33;;;;;;;30.50;17.35;;;;;;;6.97;100.00;100701.50;1043874;28;20287;-91
2022/11/15 01:47:29;;;;;;;25.48;16.73;;;;;;;6.97;100.00;100712.06;1039768;28;20360;-91
2022/11/15 01:48:19;;;;;;;28.60;17.35;;;;;;;6.98;100.00;100708.41;1038405;28;20303;-91
2022/11/15 01:49:15;;;;;;;25.05;16.60;;;;;;;6.98;100.00;100703.13;1036148;28;20320;-90
2022/11/15 01:50:09;;;;;;;25.80;17.00;;;;;;;6.99;100.00;100702.09;1035652;28;20646;-89
2022/11/15 01:51:02;;;;;;;25.27;17.77;;;;;;;7.00;100.00;100695.78;1030588;28;20385;-89
2022/11/15 01:51:53;;;;;;;29.35;17.52;;;;;;;7.01;100.00;100701.91;1037141;28;20299;-92
2022/11/15 01:52:43;;;;;;;28.88;17.55;;;;;;;7.01;100.00;100697.44;1040294;28;20347;-90
2022/11/15 01:53:36;;;;;;;34.05;20.90;;;;;;;7.03;100.00;100689.28;1038240;28;20048;-91
2022/11/15 01:54:26;;;;;;;29.88;18.35;;;;;;;7.02;100.00;100688.47;1039470;28;20291;-91
2022/11/15 01:55:22;;;;;;;31.58;19.75;;;;;;;7.04;100.00;100688.28;1038624;28;20287;-90
2022/11/15 01:56:16;;;;;;;27.52;17.75;;;;;;;7.04;100.00;100680.31;1038055;28;20170;-90
2022/11/15 01:57:09;;;;;;;29.27;19.05;;;;;;;7.06;100.00;100684.41;1028975;28;20309;-90
2022/11/15 01:58:02;;;;;;;27.83;18.92;;;;;;;7.08;100.00;100681.56;1037445;28;20404;-90
2022/11/15 01:58:53;;;;;;;30.85;16.25;;;;;;;7.08;100.00;100684.22;1039105;28;20530;-90
2022/11/15 01:59:44;;;;;;;21.92;17.83;;;;;;;7.06;100.00;100679.13;1035765;28;20354;-91
2022/11/15 02:00:35;;;;;;;32.85;19.10;;;;;;;7.09;100.00;100684.00;1034345;28;20061;-91
2022/11/15 02:01:29;;;;;;;23.15;16.65;;;;;;;7.09;100.00;100684.00;1033761;28;20348;-91
2022/11/15 02:02:21;;;;;;;35.75;18.30;;;;;;;7.10;100.00;100680.34;1031709;28;20412;-90
2022/11/15 02:03:10;;;;;;;26.70;16.80;;;;;;;7.10;100.00;100683.00;1031315;28;20286;-91
2022/11/15 02:04:05;;;;;;;27.70;16.98;;;;;;;7.12;100.00;100680.16;1032337;28;20285;-91
2022/11/15 02:04:55;;;;;;;28.50;18.70;;;;;;;7.13;100.00;100679.97;1042520;28;20290;-91
2022/11/15 02:05:45;;;;;;;26.20;18.40;;;;;;;7.13;100.00;100679.16;1040590;28;20287;-91
2022/11/15 02:06:35;;;;;;;26.05;17.90;;;;;;;7.16;100.00;100680.59;1034888;28;20293;-91
2022/11/15 02:07:26;;;;;;;30.35;19.00;;;;;;;7.16;100.00;100680.59;1031112;28;20420;-92
2022/11/15 02:08:19;;;;;;;25.13;17.60;;;;;;;7.17;100.00;100679.59;1031739;28;20082;-91
2022/11/15 02:09:10;;;;;;;25.23;18.23;;;;;;;7.18;100.00;100675.91;1034264;28;20435;-91
2022/11/15 02:10:21;;;;;;;31.30;19.80;;;;;;;7.20;100.00;100679.19;1030105;28;20331;-90
2022/11/15 02:11:12;;;;;;;31.70;20.88;;;;;;;7.20;100.00;100685.31;1031817;28;20066;-91
2022/11/15 02:12:02;;;;;;;31.25;19.08;;;;;;;7.22;100.00;100685.09;1031718;28;20377;-91
2022/11/15 02:12:52;;;;;;;29.85;18.95;;;;;;;7.21;100.00;100684.28;1037480;28;20396;-91
2022/11/15 02:13:43;;;;;;;29.63;18.75;;;;;;;7.23;100.00;100684.09;1036762;28;20315;-91
2022/11/15 02:14:33;;;;;;;24.42;18.60;;;;;;;7.24;100.00;100680.41;1032046;28;20361;-91
2022/11/15 02:15:29;;;;;;;28.55;18.75;;;;;;;7.23;100.00;100676.94;1027333;28;20187;-91
2022/11/15 02:16:27;;;;;;;29.08;18.90;;;;;;;7.27;100.00;100674.72;1031855;28;20434;-91
2022/11/15 02:17:35;;;;;;;30.33;19.15;;;;;;;7.30;100.00;100679.63;1040958;28;20303;-90
2022/11/15 02:18:33;;;;;;;35.22;22.33;;;;;;;7.33;100.00;100679.22;1042206;28;20313;-91
2022/11/15 02:19:32;;;;;;;29.55;19.60;;;;;;;7.34;100.00;100680.84;1038220;28;20299;-91
2022/11/15 02:20:46;;;;;;;31.65;19.05;;;;;;;7.34;100.00;100681.66;1039210;28;20363;-91
2022/11/15 02:21:44;;;;;;;30.08;19.63;;;;;;;7.36;100.00;100684.13;1044200;28;20291;-90
2022/11/15 02:22:51;;;;;;;29.85;17.80;;;;;;;7.37;100.00;100675.16;1036728;28;20388;-92
2022/11/15 02:24:30;;;;;;;30.17;18.48;;;;;;;7.37;100.00;100683.09;1035746;28;20303;-91
2022/11/15 02:25:48;;;;;;;26.42;18.02;;;;;;;7.39;100.00;100667.81;1033572;28;20651;-91
2022/11/15 02:26:57;;;;;;;30.17;18.60;;;;;;;7.40;100.00;100667.66;1036265;28;20347;-91
2022/11/15 02:28:11;;;;;;;27.13;18.90;;;;;;;7.43;100.00;100679.69;1043437;28;20432;-90
2022/11/15 02:29:05;;;;;;;25.63;17.95;;;;;;;7.45;100.00;100685.59;1044808;28;20358;-90
2022/11/15 02:30:19;;;;;;;25.60;17.10;;;;;;;7.45;100.00;100688.25;1037989;28;20345;-91
2022/11/15 02:31:30;;;;;;;29.75;18.60;;;;;;;7.44;100.00;100683.97;1035358;28;20341;-90
2022/11/15 02:32:34;;;;;;;30.60;19.05;;;;;;;7.47;100.00;100680.09;1037993;28;20295;-90
2022/11/15 02:33:39;;;;;;;28.67;19.15;;;;;;;7.45;100.00;100677.66;1041999;28;20294;-91
2022/11/15 02:34:47;;;;;;;29.92;18.98;;;;;;;7.48;100.00;100685.19;1035841;28;20403;-91
2022/11/15 02:35:58;;;;;;;33.58;19.17;;;;;;;7.52;100.00;100678.47;1034451;28;20679;-89
2022/11/15 02:37:27;;;;;;;29.15;18.20;;;;;;;7.54;100.00;100672.97;1040902;28;20845;-90
2022/11/15 02:38:26;;;;;;;28.50;19.13;;;;;;;7.56;100.00;100673.59;1036099;28;20300;-90
2022/11/15 02:39:22;;;;;;;28.58;18.20;;;;;;;7.56;100.00;100679.69;1034473;28;20346;-91
2022/11/15 02:40:29;;;;;;;36.80;20.33;;;;;;;7.58;100.00;100672.38;1043140;28;20358;-90
2022/11/15 02:41:24;;;;;;;27.23;18.48;;;;;;;7.59;100.00;100675.81;1037832;28;20351;-89
2022/11/15 02:43:57;;;;;;;23.90;17.45;;;;;;;7.58;100.00;100666.25;1040102;28;20333;-90
2022/11/15 02:44:48;;;;;;;30.33;17.83;;;;;;;7.61;100.00;100673.78;1038846;28;20354;-91
2022/11/15 02:45:48;;;;;;;26.70;18.23;;;;;;;7.61;100.00;100664.00;1035424;28;20343;-89
2022/11/15 02:47:52;;;;;;;24.35;18.02;;;;;;;7.63;100.00;100672.56;1037598;28;20372;-90
2022/11/15 02:48:43;;;;;;;30.63;18.98;;;;;;;7.64;100.00;100671.56;1035429;28;20339;-90
2022/11/15 02:49:34;;;;;;;30.77;18.35;;;;;;;7.62;100.00;100660.34;1035266;28;20836;-90
2022/11/15 02:50:27;;;;;;;27.30;18.50;;;;;;;7.65;100.00;100659.94;1036914;28;20056;-90
2022/11/15 02:51:18;;;;;;;34.67;18.65;;;;;;;7.67;100.00;100665.88;1041624;28;20374;-91
2022/11/15 02:52:08;;;;;;;30.63;18.45;;;;;;;7.68;100.00;100672.81;1031715;28;20695;-90
2022/11/15 02:52:58;;;;;;;28.75;17.80;;;;;;;7.68;100.00;100666.69;1031456;28;21010;-89
2022/11/15 02:53:48;;;;;;;29.35;17.63;;;;;;;7.68;100.00;100670.16;1031119;28;20361;-91
2022/11/15 02:54:38;;;;;;;31.05;18.65;;;;;;;7.68;100.00;100666.69;1034055;28;20296;-91
2022/11/15 02:55:31;;;;;;;31.88;17.92;;;;;;;7.65;100.00;100662.59;1029647;28;20339;-91
2022/11/15 02:56:21;;;;;;;30.08;16.48;;;;;;;7.67;100.00;100655.28;1030266;28;20305;-91
2022/11/15 02:57:15;;;;;;;27.10;18.23;;;;;;;7.70;100.00;100654.88;1037589;28;20342;-90
2022/11/15 02:58:18;;;;;;;33.97;18.85;;;;;;;7.72;100.00;100658.13;1027163;28;20389;-91
2022/11/15 02:59:23;;;;;;;26.95;17.73;;;;;;;7.75;100.00;100667.50;1038989;28;20514;-91
2022/11/15 03:00:20;;;;;;;29.20;18.30;;;;;;;7.78;100.00;100661.00;1033837;28;20388;-91
2022/11/15 03:01:19;;;;;;;25.27;16.58;;;;;;;7.81;100.00;100663.22;1035859;28;20377;-90
2022/11/15 03:02:24;;;;;;;25.67;17.45;;;;;;;7.83;100.00;100654.06;1038291;28;20331;-90
2022/11/15 03:03:24;;;;;;;27.70;17.83;;;;;;;7.86;100.00;100661.59;1044160;28;20288;-90
2022/11/15 03:04:51;;;;;;;34.15;18.00;;;;;;;7.85;100.00;100662.63;1037889;28;20299;-90
2022/11/15 03:05:46;;;;;;;27.77;16.92;;;;;;;7.87;100.00;100655.28;1037179;28;20292;-90
2022/11/15 03:06:46;;;;;;;27.90;18.25;;;;;;;7.87;100.00;100649.97;1034037;28;20861;-89
2022/11/15 03:07:57;;;;;;;28.42;18.55;;;;;;;7.91;100.00;100647.72;1034812;28;20292;-91
2022/11/15 03:09:03;;;;;;;25.92;16.80;;;;;;;7.93;100.00;100649.16;1039584;28;20279;-90
2022/11/15 03:10:05;;;;;;;38.33;17.98;;;;;;;7.94;100.00;100639.34;1039602;28;20375;-90
2022/11/15 03:11:11;;;;;;;;;;;;;;;7.95;100.00;100641.84;1034365;28;20374;-90
2022/11/15 03:12:29;;;;;;;26.13;16.38;;;;;;;7.96;100.00;100638.16;1035293;28;19928;-90
2022/11/15 03:13:39;;;;;;;29.13;17.95;;;;;;;7.95;100.00;100639.19;1034547;28;20296;-91
2022/11/15 03:14:34;;;;;;;27.20;16.75;;;;;;;7.94;100.00;100640.22;1037026;28;20312;-90
2022/11/15 03:15:30;;;;;;;25.08;16.80;;;;;;;7.94;100.00;100639.34;1039414;28;20340;-90
2022/11/15 03:16:20;;;;;;;26.80;17.83;;;;;;;7.95;100.00;100633.06;1037789;28;20796;-90
2022/11/15 03:17:38;;;;;;;25.77;17.25;;;;;;;7.95;100.00;100646.31;1040350;28;20306;-91
2022/11/15 03:18:35;;;;;;;28.10;17.48;;;;;;;7.95;100.00;100636.53;1039532;28;20657;-90
2022/11/15 03:19:54;;;;;;;33.47;18.33;;;;;;;7.98;100.00;100643.25;1035171;28;20284;-90
2022/11/15 03:20:46;;;;;;;24.88;17.02;;;;;;;7.98;100.00;100630.00;1030429;28;20307;-90
2022/11/15 03:21:36;;;;;;;;;;;;;;;7.98;100.00;100640.63;1039965;28;20295;-90
2022/11/15 03:22:29;;;;;;;24.50;16.40;;;;;;;7.99;100.00;100636.94;1033057;28;20126;-89
2022/11/15 03:23:19;;;;;;;28.33;18.77;;;;;;;7.99;100.00;100636.94;1032706;28;20292;-90
2022/11/15 03:24:10;;;;;;;31.30;17.23;;;;;;;7.97;100.00;100639.78;1036881;28;20343;-90
2022/11/15 03:25:03;;;;;;;29.63;17.08;;;;;;;8.00;100.00;100641.22;1035723;28;20739;-90
2022/11/15 03:25:54;;;;;;;35.78;17.85;;;;;;;8.00;100.00;100633.25;1029453;28;20703;-91
2022/11/15 03:26:44;;;;;;;;;;;;;;;8.02;100.00;100632.03;1030179;28;20597;-91
2022/11/15 03:27:38;;;;;;;23.42;14.70;;;;;;;8.01;100.00;100624.28;1035150;28;19928;-91
2022/11/15 03:28:34;;;;;;;28.95;17.15;;;;;;;8.04;100.00;100629.19;1030234;28;20708;-89
2022/11/15 03:29:31;;;;;;;26.65;16.33;;;;;;;8.06;100.00;100633.25;1036566;28;20330;-90
2022/11/15 03:30:21;;;;;;;27.00;18.05;;;;;;;8.07;100.00;100628.75;1039420;28;20811;-89
2022/11/15 03:32:25;;;;;;;25.55;17.35;;;;;;;8.08;100.00;100619.78;1037609;28;20771;-89
2022/11/15 03:33:16;;;;;;;29.80;18.05;;;;;;;8.09;100.00;100626.72;1043450;28;20298;-91
2022/11/15 03:34:09;;;;;;;30.05;17.13;;;;;;;8.08;100.00;100622.44;1033022;28;20288;-90
2022/11/15 03:35:07;;;;;;;26.48;17.58;;;;;;;8.09;100.00;100621.41;1029833;28;20062;-90
2022/11/15 03:35:57;;;;;;;27.58;17.83;;;;;;;8.13;100.00;100624.47;1034213;28;20349;-90
2022/11/15 03:36:48;;;;;;;26.73;17.00;;;;;;;8.11;100.00;100622.03;1034977;28;20884;-90
2022/11/15 03:37:53;;;;;;;26.15;16.90;;;;;;;8.15;100.00;100625.91;1037450;28;20064;-90
2022/11/15 03:38:44;;;;;;;25.27;15.93;;;;;;;8.13;100.00;100622.63;1035965;28;20053;-90
2022/11/15 03:39:34;;;;;;;;;;;;;;;8.09;100.00;100620.59;1028449;28;20706;-90
2022/11/15 03:40:30;;;;;;;22.55;15.00;;;;;;;8.09;100.00;100610.81;1036348;28;20499;-91
2022/11/15 03:41:33;;;;;;;24.45;16.50;;;;;;;8.11;100.00;100608.75;1041796;28;20394;-91
2022/11/15 03:42:29;;;;;;;24.02;16.08;;;;;;;8.15;100.00;100620.59;1032952;28;20305;-90
2022/11/15 03:43:39;;;;;;;24.52;15.75;;;;;;;8.14;100.00;100621.59;1037152;28;20394;-90
2022/11/15 03:44:42;;;;;;;23.23;15.52;;;;;;;8.16;100.00;100621.41;1041060;28;20637;-90
2022/11/15 03:45:36;;;;;;;32.92;17.42;;;;;;;8.16;100.00;100616.91;1036555;28;20820;-89
2022/11/15 03:46:38;;;;;;;29.05;17.33;;;;;;;8.18;100.00;100614.06;1035790;28;20456;-88
2022/11/15 03:47:51;;;;;;;29.05;17.90;;;;;;;8.21;100.00;100622.41;1036333;28;20341;-91
2022/11/15 03:48:50;;;;;;;36.70;17.95;;;;;;;8.20;100.00;100618.13;1031449;28;20113;-91
2022/11/15 03:49:46;;;;;;;25.73;16.90;;;;;;;8.21;100.00;100625.06;1030610;28;20684;-90
2022/11/15 03:50:36;;;;;;;33.28;19.30;;;;;;;8.21;100.00;100622.41;1037854;28;20307;-91
2022/11/15 03:51:26;;;;;;;28.13;18.30;;;;;;;8.21;100.00;100622.41;1035513;28;20308;-91
2022/11/15 03:52:21;;;;;;;28.63;17.70;;;;;;;8.23;100.00;100625.69;1028372;28;20834;-90
2022/11/15 03:53:12;;;;;;;24.85;16.75;;;;;;;8.26;100.00;100619.97;1031235;28;20365;-91
2022/11/15 03:54:04;;;;;;;24.40;16.38;;;;;;;8.26;100.00;100622.63;1035406;28;20304;-91
2022/11/15 03:54:56;;;;;;;23.90;16.83;;;;;;;8.28;100.00;100631.22;1028457;28;20831;-90
2022/11/15 03:55:46;;;;;;;29.45;17.70;;;;;;;8.28;100.00;100631.22;1023325;29;20301;-90
2022/11/15 03:56:35;;;;;;;26.80;18.58;;;;;;;8.27;100.00;100626.91;1029479;28;20338;-91
2022/11/15 03:57:25;;;;;;;26.63;17.70;;;;;;;8.29;100.00;100626.72;1030139;28;20293;-91
2022/11/15 03:58:15;;;;;;;28.73;16.70;;;;;;;8.28;100.00;100625.91;1032054;28;20332;-91
2022/11/15 03:59:05;;;;;;;25.33;16.65;;;;;;;8.30;100.00;100623.84;1032325;28;20288;-91
2022/11/15 03:59:55;;;;;;;27.92;14.07;;;;;;;8.30;100.00;100623.84;1037328;28;20433;-90
2022/11/15 04:00:45;;;;;;;30.35;18.25;;;;;;;8.31;100.00;100625.47;1035245;28;20360;-90
2022/11/15 04:01:36;;;;;;;24.20;17.55;;;;;;;8.30;100.00;100626.50;1036804;28;20296;-90
2022/11/15 04:02:28;;;;;;;24.05;16.80;;;;;;;8.31;100.00;100625.47;1036938;28;20316;-90
2022/11/15 04:03:18;;;;;;;24.80;16.83;;;;;;;8.33;100.00;100615.50;1037005;28;20295;-91
2022/11/15 04:04:07;;;;;;;22.42;16.38;;;;;;;8.33;100.00;100628.78;1031900;28;20342;-91
2022/11/15 04:04:57;;;;;;;24.10;18.13;;;;;;;8.33;100.00;100623.47;1030391;28;20329;-91
2022/11/15 04:05:47;;;;;;;23.52;17.35;;;;;;;8.33;100.00;100627.94;1033165;28;20299;-90
2022/11/15 04:06:37;;;;;;;27.23;17.63;;;;;;;8.34;100.00;100626.94;1034983;28;20280;-91
2022/11/15 04:07:28;;;;;;;25.52;17.02;;;;;;;8.34;100.00;100622.44;1030889;28;20308;-91
2022/11/15 04:08:18;;;;;;;25.65;16.80;;;;;;;8.36;100.00;100619.56;1027151;28;20174;-90
2022/11/15 04:09:08;;;;;;;30.05;17.00;;;;;;;8.40;100.00;100627.94;1038833;28;20287;-90
2022/11/15 04:10:05;;;;;;;30.35;16.58;;;;;;;8.41;100.00;100635.69;1033518;28;20728;-90
2022/11/15 04:10:55;;;;;;;25.33;18.08;;;;;;;8.41;100.00;100626.91;1031239;28;20285;-91